Time;durP1;ratioP1;P1;durP2;ratioP2;P2;SDS_P1;SDS_P2;PMS_P1;PMS_P2;Temp;Humidity;BMP_temperature;BMP_pressure;BME280_temperature;BME280_humidity;BME280_pressure;Samples;Min_cycle;Max_cycle;Signal;HPM_P1;HPM_P2
2021/01/27 00:00:51;;;;;;;18.58;10.48;;;;;;;-0.45;91.68;100997.72;5148890;27;20528;-56
2021/01/27 00:03:18;;;;;;;17.50;10.55;;;;;;;-0.36;91.55;100997.66;5156885;27;20237;-56
2021/01/27 00:05:47;;;;;;;23.30;12.15;;;;;;;-0.37;91.79;100989.16;5145259;27;20596;-57
2021/01/27 00:08:14;;;;;;;30.45;12.52;;;;;;;-0.43;91.86;100986.06;5136310;27;20222;-57
2021/01/27 00:10:41;;;;;;;21.35;11.10;;;;;;;-0.42;91.92;100985.31;5136702;27;20252;-55
2021/01/27 00:13:14;;;;;;;24.85;11.13;;;;;;;-0.36;91.69;100979.91;5138456;27;20272;-58
2021/01/27 00:15:42;;;;;;;22.50;11.85;;;;;;;-0.34;91.40;100978.41;5146418;27;20282;-56
2021/01/27 00:18:11;;;;;;;22.08;11.45;;;;;;;-0.41;91.65;100979.50;5137462;27;20223;-58
2021/01/27 00:20:38;;;;;;;24.08;12.35;;;;;;;-0.38;91.82;100978.88;5137393;27;20604;-53
2021/01/27 00:23:05;;;;;;;27.33;12.95;;;;;;;-0.41;91.88;100974.44;5136031;27;20531;-58
2021/01/27 00:25:34;;;;;;;21.67;11.40;;;;;;;-0.57;92.09;100972.16;5136620;27;20573;-56
2021/01/27 00:28:01;;;;;;;21.58;10.98;;;;;;;-0.63;92.71;100972.50;5125300;27;20234;-57
2021/01/27 00:30:30;;;;;;;24.10;11.93;;;;;;;-0.65;92.64;100968.03;5137173;27;20286;-57
2021/01/27 00:32:57;;;;;;;23.35;11.45;;;;;;;-0.73;92.77;100960.63;5135201;27;20636;-55
2021/01/27 00:35:25;;;;;;;27.27;13.88;;;;;;;-0.79;92.67;100960.09;5136324;27;20623;-56
2021/01/27 00:37:52;;;;;;;28.27;14.15;;;;;;;-0.55;92.56;100960.53;5135083;27;20640;-58
2021/01/27 00:40:19;;;;;;;31.60;13.23;;;;;;;-0.61;92.33;100958.31;5137170;27;20301;-58
2021/01/27 00:42:47;;;;;;;30.55;14.60;;;;;;;-0.61;92.35;100949.81;5154874;27;20234;-58
2021/01/27 00:45:14;;;;;;;30.98;14.27;;;;;;;-0.67;92.11;100947.63;5135869;27;20198;-59
2021/01/27 00:47:40;;;;;;;25.67;12.60;;;;;;;-0.63;92.08;100948.78;5135314;27;20233;-58
2021/01/27 00:50:08;;;;;;;30.27;15.82;;;;;;;-0.65;92.48;100946.13;5136540;27;20202;-56
2021/01/27 00:52:35;;;;;;;30.52;14.38;;;;;;;-0.63;92.35;100936.09;5156016;27;20591;-55
2021/01/27 00:55:10;;;;;;;32.28;14.02;;;;;;;-0.77;92.69;100948.44;5157548;27;20206;-58
2021/01/27 00:57:36;;;;;;;32.15;16.00;;;;;;;-0.66;92.57;100940.91;5156572;27;20677;-55
2021/01/27 01:00:09;;;;;;;30.48;16.48;;;;;;;-0.66;92.42;100934.22;5145441;27;20214;-55
2021/01/27 01:02:39;;;;;;;32.03;16.23;;;;;;;-0.76;92.76;100936.66;5136016;27;20598;-59
2021/01/27 01:05:09;;;;;;;32.75;16.23;;;;;;;-0.79;92.97;100933.84;5136885;28;20199;-55
2021/01/27 01:07:35;;;;;;;29.15;15.88;;;;;;;-0.85;92.88;100931.66;5135167;27;20317;-58
2021/01/27 01:10:05;;;;;;;34.17;17.48;;;;;;;-0.82;92.91;100934.47;5136935;28;20198;-55
2021/01/27 01:12:32;;;;;;;37.55;18.27;;;;;;;-0.85;93.03;100939.25;5135630;27;20250;-57
2021/01/27 01:14:59;;;;;;;38.17;17.08;;;;;;;-0.88;92.92;100939.00;5136526;28;20515;-57
2021/01/27 01:17:26;;;;;;;35.85;15.27;;;;;;;-0.90;93.26;100945.53;5134886;27;20280;-56
2021/01/27 01:19:53;;;;;;;37.10;17.38;;;;;;;-1.05;93.41;100945.03;5137052;28;20251;-56
2021/01/27 01:22:19;;;;;;;30.17;16.35;;;;;;;-0.97;93.73;100947.53;5134852;27;20695;-57
2021/01/27 01:24:46;;;;;;;35.55;17.90;;;;;;;-0.87;93.78;100946.72;5136532;28;20523;-57
2021/01/27 01:27:13;;;;;;;31.90;16.10;;;;;;;-0.86;93.40;100947.63;5135271;27;20288;-57
2021/01/27 01:29:39;;;;;;;39.80;18.30;;;;;;;-0.86;93.88;100942.56;5136595;28;20572;-59
2021/01/27 01:32:06;;;;;;;40.15;17.75;;;;;;;-0.90;94.00;100943.91;5135064;27;20199;-55
2021/01/27 01:34:34;;;;;;;44.72;17.65;;;;;;;-0.88;93.87;100939.88;5136242;28;20510;-57
2021/01/27 01:37:01;;;;;;;39.67;17.90;;;;;;;-0.94;94.04;100939.31;5134870;27;20302;-57
2021/01/27 01:39:27;;;;;;;34.75;17.92;;;;;;;-0.78;93.75;100941.59;5135933;28;20237;-57
2021/01/27 01:41:54;;;;;;;37.50;17.77;;;;;;;-0.76;93.70;100945.16;5135092;27;20667;-57
2021/01/27 01:44:20;;;;;;;36.80;17.92;;;;;;;-0.79;93.97;100939.81;5136737;27;20226;-56
2021/01/27 01:46:47;;;;;;;36.90;19.10;;;;;;;-0.78;93.91;100928.91;5140519;27;20222;-55
2021/01/27 01:49:14;;;;;;;37.38;19.38;;;;;;;-0.66;93.70;100931.69;5138371;27;20318;-56
2021/01/27 01:51:45;;;;;;;47.92;20.98;;;;;;;-0.64;93.64;100929.25;5140353;27;20278;-53
2021/01/27 01:54:17;;;;;;;48.08;22.40;;;;;;;-0.52;93.67;100937.09;5138251;27;20325;-58
2021/01/27 01:56:47;;;;;;;56.58;23.77;;;;;;;-0.43;93.42;100923.59;5140010;27;20227;-57
2021/01/27 01:59:14;;;;;;;40.38;19.50;;;;;;;-0.49;93.46;100925.56;5138424;27;20242;-55
2021/01/27 02:01:43;;;;;;;39.58;20.50;;;;;;;-0.39;93.32;100923.84;5139880;27;20198;-57
2021/01/27 02:04:11;;;;;;;42.03;21.95;;;;;;;-0.39;93.35;100919.69;5138140;27;20291;-59
2021/01/27 02:10:21;;;;;;;46.40;19.40;;;;;;;-0.35;93.27;100918.31;5134033;27;20310;-56
2021/01/27 02:12:57;;;;;;;40.22;18.35;;;;;;;-0.35;93.41;100913.22;5138599;27;20543;-54
2021/01/27 02:15:50;;;;;;;36.72;18.73;;;;;;;-0.34;93.35;100910.84;5139683;27;20292;-58
2021/01/27 02:18:22;;;;;;;44.45;19.60;;;;;;;-0.33;93.22;100917.69;5138535;27;20234;-57
2021/01/27 02:21:22;;;;;;;43.67;21.40;;;;;;;-0.25;93.30;100904.78;5139955;27;20232;-56
2021/01/27 02:24:06;;;;;;;44.88;20.20;;;;;;;-0.22;93.40;100897.44;5138036;27;20237;-57
2021/01/27 02:26:45;;;;;;;39.70;19.35;;;;;;;-0.27;93.34;100891.97;5139714;27;20223;-57
2021/01/27 02:29:30;;;;;;;43.17;20.55;;;;;;;-0.28;93.32;100895.25;5137981;27;20666;-58
2021/01/27 02:32:01;;;;;;;49.42;21.88;;;;;;;-0.17;93.44;100894.56;5137948;27;20194;-56
2021/01/27 02:34:54;;;;;;;38.63;21.08;;;;;;;-0.18;93.10;100891.88;5139165;27;20317;-57
2021/01/27 02:37:24;;;;;;;39.25;20.40;;;;;;;-0.22;93.05;100890.72;5120781;27;20305;-57
2021/01/27 02:39:55;;;;;;;40.88;19.65;;;;;;;-0.23;93.00;100898.19;5139080;27;20207;-58
2021/01/27 02:42:28;;;;;;;44.15;21.15;;;;;;;-0.28;93.06;100887.66;5138160;27;20310;-56
2021/01/27 02:44:58;;;;;;;40.10;20.25;;;;;;;-0.25;93.09;100889.56;5139012;27;20572;-54
2021/01/27 02:47:28;;;;;;;44.83;20.90;;;;;;;-0.23;93.02;100888.03;5137719;27;20261;-58
2021/01/27 02:49:59;;;;;;;42.25;21.80;;;;;;;-0.26;93.22;100888.66;5139763;27;20253;-57
2021/01/27 02:52:30;;;;;;;41.20;20.92;;;;;;;-0.34;93.15;100885.47;5137722;27;20262;-58
2021/01/27 02:55:01;;;;;;;45.13;21.80;;;;;;;-0.29;93.08;100883.34;5138830;27;20294;-57
2021/01/27 02:57:30;;;;;;;47.83;21.73;;;;;;;-0.25;93.10;100882.84;5137960;27;20234;-56
2021/01/27 03:00:00;;;;;;;39.90;20.27;;;;;;;-0.35;93.74;100875.19;5139012;27;20245;-57
2021/01/27 03:02:30;;;;;;;39.78;20.73;;;;;;;-0.28;93.51;100874.97;5137403;27;20530;-53
2021/01/27 03:05:06;;;;;;;43.70;21.58;;;;;;;-0.29;93.20;100874.06;5138784;27;20195;-59
2021/01/27 03:07:34;;;;;;;41.20;20.65;;;;;;;-0.25;92.76;100877.78;5137239;27;20250;-58
2021/01/27 03:10:06;;;;;;;44.72;21.92;;;;;;;-0.26;92.89;100867.50;5138978;27;20206;-57
2021/01/27 03:12:33;;;;;;;44.20;19.42;;;;;;;-0.42;92.96;100867.03;5137817;27;20230;-57
2021/01/27 03:14:59;;;;;;;42.42;20.73;;;;;;;-0.37;93.17;100864.03;5138705;27;20572;-57
2021/01/27 03:17:28;;;;;;;43.40;19.95;;;;;;;-0.43;93.18;100865.28;5137019;27;20348;-58
2021/01/27 03:20:01;;;;;;;36.58;16.92;;;;;;;-0.51;93.21;100860.28;5138803;27;20571;-56
2021/01/27 03:22:32;;;;;;;39.33;20.95;;;;;;;-0.42;93.67;100861.06;5136980;27;20268;-55
2021/01/27 03:25:02;;;;;;;41.15;19.40;;;;;;;-0.48;93.52;100861.44;5138626;27;20199;-59
2021/01/27 03:27:32;;;;;;;35.40;18.63;;;;;;;-0.56;93.90;100859.88;5136813;27;20254;-55
2021/01/27 03:30:00;;;;;;;47.33;19.67;;;;;;;-0.53;93.93;100865.22;5138779;27;20203;-58
2021/01/27 03:32:43;;;;;;;42.20;20.30;;;;;;;-0.59;93.99;100862.13;5136648;27;20708;-59
2021/01/27 03:35:15;;;;;;;39.28;20.73;;;;;;;-0.46;93.82;100854.84;5138088;27;20198;-55
2021/01/27 03:37:44;;;;;;;37.75;18.75;;;;;;;-0.42;93.51;100854.38;5136784;27;20544;-59
2021/01/27 03:40:13;;;;;;;40.08;20.67;;;;;;;-0.49;93.69;100849.53;5138461;27;20294;-56
2021/01/27 03:42:45;;;;;;;43.55;21.40;;;;;;;-0.50;93.72;100852.81;5137156;27;20258;-56
2021/01/27 03:45:14;;;;;;;45.90;21.70;;;;;;;-0.54;94.05;100850.75;5137887;27;20206;-58
2021/01/27 03:47:47;;;;;;;48.55;22.15;;;;;;;-0.48;94.03;100846.22;5136131;27;20230;-57
2021/01/27 03:50:17;;;;;;;45.60;20.52;;;;;;;-0.51;93.94;100853.53;5138262;27;20199;-53
2021/01/27 03:52:48;;;;;;;45.25;23.63;;;;;;;-0.50;94.08;100856.97;5136319;27;20236;-56
2021/01/27 03:55:20;;;;;;;48.58;21.63;;;;;;;-0.53;94.07;100851.66;5137849;27;20280;-54
2021/01/27 03:57:49;;;;;;;50.00;23.30;;;;;;;-0.51;94.01;100851.00;5136727;27;20286;-59
2021/01/27 04:00:17;;;;;;;42.25;21.25;;;;;;;-0.58;94.18;100844.53;5137894;27;20238;-54
2021/01/27 04:02:44;;;;;;;43.55;21.73;;;;;;;-0.59;94.17;100841.84;5136440;27;20281;-57
2021/01/27 04:05:11;;;;;;;39.58;18.73;;;;;;;-0.64;94.57;100845.63;5137696;27;20551;-59
2021/01/27 04:07:38;;;;;;;42.10;22.50;;;;;;;-0.60;94.55;100846.06;5134461;27;20234;-59
2021/01/27 04:10:06;;;;;;;44.22;19.92;;;;;;;-0.59;94.51;100842.75;5137708;27;20207;-53
2021/01/27 04:12:33;;;;;;;40.63;20.05;;;;;;;-0.59;94.32;100841.84;5136399;27;20234;-55
2021/01/27 04:14:59;;;;;;;53.90;22.63;;;;;;;-0.57;94.47;100835.25;5137369;27;20195;-55
2021/01/27 04:17:27;;;;;;;44.70;20.08;;;;;;;-0.58;94.63;100839.47;5136120;27;20226;-54
2021/01/27 04:19:55;;;;;;;41.30;22.00;;;;;;;-0.53;94.52;100842.38;5137646;27;20213;-57
2021/01/27 04:22:21;;;;;;;53.40;19.58;;;;;;;-0.59;94.52;100836.78;5136017;27;20227;-57
2021/01/27 04:24:49;;;;;;;62.42;22.38;;;;;;;-0.58;94.57;100838.56;5137291;27;20242;-56
2021/01/27 04:27:16;;;;;;;46.35;22.52;;;;;;;-0.48;94.51;100831.00;5136241;27;20526;-53
2021/01/27 04:29:42;;;;;;;32.85;14.73;;;;;;;-0.55;94.64;100833.78;5137253;27;20198;-56
2021/01/27 04:32:09;;;;;;;45.67;23.23;;;;;;;-0.60;94.91;100825.78;5135796;27;20492;-56
2021/01/27 04:34:37;;;;;;;42.90;18.70;;;;;;;-0.50;94.64;100826.56;5136985;27;20199;-56
2021/01/27 04:37:03;;;;;;;55.50;23.67;;;;;;;-0.48;94.38;100822.50;5135743;27;20214;-55
2021/01/27 04:39:30;;;;;;;45.90;23.42;;;;;;;-0.42;94.51;100821.41;5136762;27;20265;-56
2021/01/27 04:41:58;;;;;;;56.28;24.77;;;;;;;-0.36;94.31;100825.25;5136043;27;20195;-58
2021/01/27 04:44:25;;;;;;;48.58;23.65;;;;;;;-0.36;94.07;100826.09;5136981;27;20326;-58
2021/01/27 04:47:02;;;;;;;51.53;26.40;;;;;;;-0.41;94.20;100817.25;5137049;27;20229;-58
2021/01/27 04:49:33;;;;;;;57.47;26.05;;;;;;;-0.44;94.45;100812.78;5136881;27;20627;-56
2021/01/27 04:52:05;;;;;;;47.35;22.02;;;;;;;-0.47;94.58;100812.50;5135560;27;20234;-56
2021/01/27 04:54:41;;;;;;;49.13;24.95;;;;;;;-0.46;94.58;100803.28;5136695;27;20688;-58
2021/01/27 04:57:37;;;;;;;55.58;25.15;;;;;;;-0.42;94.04;100790.97;5135752;27;20718;-58
2021/01/27 05:00:22;;;;;;;55.55;26.50;;;;;;;-0.38;94.26;100798.84;5136866;27;20207;-58
2021/01/27 05:02:54;;;;;;;57.75;27.55;;;;;;;-0.32;94.29;100786.69;5136237;28;20241;-56
2021/01/27 05:05:24;;;;;;;56.30;23.50;;;;;;;-0.26;93.93;100784.69;5137048;28;20228;-55
2021/01/27 05:08:05;;;;;;;50.42;24.55;;;;;;;-0.32;93.95;100786.69;5135214;28;20666;-59
2021/01/27 05:10:37;;;;;;;47.05;20.85;;;;;;;-0.30;93.96;100790.25;5137183;28;20202;-58
2021/01/27 05:13:12;;;;;;;57.13;23.83;;;;;;;-0.37;94.24;100787.97;5135707;28;20234;-58
2021/01/27 05:15:39;;;;;;;55.65;24.35;;;;;;;-0.29;94.12;100789.50;5136836;28;20564;-58
2021/01/27 05:18:06;;;;;;;54.80;23.95;;;;;;;-0.34;94.04;100783.13;5135265;27;20234;-58
2021/01/27 05:20:33;;;;;;;54.35;21.15;;;;;;;-0.33;94.15;100779.84;5139968;27;20205;-58
2021/01/27 05:23:00;;;;;;;66.53;26.02;;;;;;;-0.27;94.28;100780.38;5139162;27;20318;-58
2021/01/27 05:25:36;;;;;;;58.13;25.67;;;;;;;-0.31;94.19;100779.22;5140565;27;20226;-57
2021/01/27 05:28:06;;;;;;;53.00;25.52;;;;;;;-0.29;94.17;100781.91;5139396;27;20233;-57
2021/01/27 05:30:36;;;;;;;59.53;25.15;;;;;;;-0.29;94.17;100780.22;5140765;27;20199;-57
2021/01/27 05:33:03;;;;;;;45.75;18.90;;;;;;;-0.20;93.92;100780.13;5138811;27;20230;-57
2021/01/27 05:35:34;;;;;;;55.05;25.50;;;;;;;-0.20;94.33;100777.59;5140490;27;20203;-58
2021/01/27 05:38:18;;;;;;;57.80;22.13;;;;;;;-0.20;94.20;100777.59;5138987;27;20233;-57
2021/01/27 05:40:45;;;;;;;62.72;29.60;;;;;;;-0.11;93.91;100777.50;5140458;27;20203;-55
2021/01/27 05:43:14;;;;;;;63.55;29.75;;;;;;;-0.11;93.79;100766.47;5139104;27;20326;-58
2021/01/27 05:45:43;;;;;;;68.28;28.52;;;;;;;-0.01;93.42;100769.00;5140166;27;20608;-55
2021/01/27 05:48:26;;;;;;;67.75;27.55;;;;;;;-0.10;93.69;100768.25;5138824;27;20231;-57
2021/01/27 05:50:55;;;;;;;57.10;25.15;;;;;;;-0.09;93.67;100772.56;5140651;27;20227;-55
2021/01/27 05:53:24;;;;;;;69.80;27.92;;;;;;;-0.16;94.13;100768.59;5138527;27;20243;-56
2021/01/27 05:55:58;;;;;;;60.63;28.13;;;;;;;-0.14;93.92;100762.91;5139913;27;20205;-54
2021/01/27 05:58:27;;;;;;;61.63;26.25;;;;;;;-0.18;94.03;100771.03;5139576;27;20233;-56
2021/01/27 06:01:13;;;;;;;64.20;29.42;;;;;;;-0.08;93.93;100766.72;5139997;27;20214;-59
2021/01/27 06:03:49;;;;;;;64.32;27.65;;;;;;;-0.11;93.21;100757.19;5138199;27;20237;-57
2021/01/27 06:06:15;;;;;;;65.47;29.80;;;;;;;0.02;93.57;100758.22;5139967;27;20228;-57
2021/01/27 06:08:48;;;;;;;75.47;32.05;;;;;;;0.08;93.17;100753.69;5138376;27;20234;-56
2021/01/27 06:11:15;;;;;;;70.30;29.63;;;;;;;-0.05;93.30;100754.31;5140237;27;20203;-57
2021/01/27 06:13:43;;;;;;;69.30;30.23;;;;;;;-0.01;93.16;100749.63;5138985;27;20501;-58
2021/01/27 06:16:17;;;;;;;68.50;32.72;;;;;;;0.07;93.27;100752.81;5139641;27;20719;-55
2021/01/27 06:18:44;;;;;;;72.05;31.98;;;;;;;0.06;92.85;100748.47;5137564;27;20644;-57
2021/01/27 06:21:29;;;;;;;75.70;33.50;;;;;;;-0.04;93.05;100749.34;5139949;27;20249;-56
2021/01/27 06:24:09;;;;;;;73.35;31.15;;;;;;;0.03;92.90;100755.84;5137784;27;20246;-56
2021/01/27 06:26:47;;;;;;;67.00;30.38;;;;;;;0.06;92.94;100751.00;5139714;27;20221;-59
2021/01/27 06:29:23;;;;;;;70.07;30.33;;;;;;;0.06;92.77;100755.22;5138393;27;20226;-55
2021/01/27 06:32:06;;;;;;;63.10;30.70;;;;;;;0.01;92.82;100744.69;5139381;27;20222;-59
2021/01/27 06:34:48;;;;;;;53.15;20.85;;;;;;;0.10;92.69;100740.34;5138416;27;20275;-54
2021/01/27 06:37:27;;;;;;;70.80;29.65;;;;;;;-0.03;93.05;100730.84;5138053;27;20238;-55
2021/01/27 06:40:06;;;;;;;69.43;25.60;;;;;;;0.00;92.79;100725.16;5139605;27;20569;-57
2021/01/27 06:42:56;;;;;;;44.42;20.55;;;;;;;-0.08;92.70;100729.56;5138123;27;20325;-56
2021/01/27 06:45:33;;;;;;;37.70;14.48;;;;;;;-0.09;92.85;100737.94;5118703;28;20291;-57
2021/01/27 06:48:11;;;;;;;60.83;28.02;;;;;;;-0.05;92.86;100745.03;5117183;28;20231;-57
2021/01/27 06:50:49;;;;;;;54.95;23.80;;;;;;;-0.07;92.88;100740.59;5118815;28;20206;-57
2021/01/27 06:53:32;;;;;;;45.38;18.92;;;;;;;-0.09;92.96;100737.03;5116817;28;20231;-56
2021/01/27 06:56:32;;;;;;;75.70;32.92;;;;;;;-0.04;92.93;100733.25;5118452;28;20223;-56
2021/01/27 06:59:28;;;;;;;56.35;24.90;;;;;;;-0.04;92.56;100736.66;5113872;28;20241;-57
2021/01/27 07:02:31;;;;;;;64.28;29.33;;;;;;;-0.06;92.45;100739.84;5116979;28;20225;-54
2021/01/27 07:05:20;;;;;;;66.57;31.67;;;;;;;-0.07;92.39;100738.06;5118170;28;20199;-59
2021/01/27 07:07:58;;;;;;;61.80;28.52;;;;;;;-0.05;92.09;100728.94;5116588;28;20313;-58
2021/01/27 07:10:47;;;;;;;62.53;30.70;;;;;;;-0.05;92.16;100734.03;5118584;28;20256;-58
2021/01/27 07:13:29;;;;;;;54.38;25.10;;;;;;;-0.04;91.90;100731.59;5111534;28;20292;-53
2021/01/27 07:16:00;;;;;;;60.95;26.98;;;;;;;-0.04;92.26;100731.59;5117792;28;20219;-56
2021/01/27 07:18:42;;;;;;;76.18;30.27;;;;;;;-0.04;91.99;100731.59;5116569;28;20667;-55
2021/01/27 07:21:12;;;;;;;64.78;27.63;;;;;;;-0.10;92.05;100733.59;5118279;28;20252;-56
2021/01/27 07:23:46;;;;;;;64.68;28.88;;;;;;;0.01;91.92;100726.03;5116506;28;20409;-56
2021/01/27 07:26:16;;;;;;;59.67;28.50;;;;;;;-0.11;91.93;100730.97;5117659;28;20250;-55
2021/01/27 07:28:49;;;;;;;57.53;26.75;;;;;;;-0.11;92.04;100726.75;5116371;28;20652;-54
2021/01/27 07:31:20;;;;;;;56.70;23.20;;;;;;;-0.16;91.83;100722.94;5117788;28;20196;-57
2021/01/27 07:33:50;;;;;;;62.97;28.88;;;;;;;-0.08;91.95;100731.19;5116341;28;20235;-58
2021/01/27 07:36:33;;;;;;;62.45;28.15;;;;;;;-0.12;91.77;100719.03;5117563;28;20219;-54
2021/01/27 07:39:04;;;;;;;59.53;29.90;;;;;;;-0.12;91.86;100719.91;5116117;28;20580;-58
2021/01/27 07:41:40;;;;;;;74.95;31.08;;;;;;;-0.09;91.86;100722.72;5117470;28;20212;-57
2021/01/27 07:44:08;;;;;;;57.55;25.77;;;;;;;-0.15;91.43;100712.94;5115838;28;20262;-58
2021/01/27 07:46:38;;;;;;;64.32;28.90;;;;;;;-0.04;91.49;100708.75;5117740;28;20255;-56
2021/01/27 07:49:06;;;;;;;60.38;27.52;;;;;;;-0.05;91.15;100711.19;5115836;28;20644;-58
2021/01/27 07:51:41;;;;;;;64.18;28.90;;;;;;;-0.14;91.28;100712.16;5117495;28;20195;-57
2021/01/27 07:54:15;;;;;;;51.65;23.25;;;;;;;-0.14;91.03;100701.16;5115299;28;20235;-52
2021/01/27 07:56:50;;;;;;;67.35;28.58;;;;;;;-0.19;91.47;100698.25;5117508;28;20257;-57
2021/01/27 07:59:22;;;;;;;22.73;11.25;;;;;;;-0.21;91.28;100704.81;5116227;28;20236;-57
2021/01/27 08:01:52;;;;;;;57.05;23.17;;;;;;;-0.21;91.54;100698.88;5117124;28;20401;-59
2021/01/27 08:04:26;;;;;;;60.70;26.70;;;;;;;-0.20;91.48;100701.50;5116812;28;20656;-55
2021/01/27 08:06:57;;;;;;;65.57;27.70;;;;;;;-0.22;91.08;100699.59;5129800;27;20245;-60
2021/01/27 08:09:30;;;;;;;57.45;26.30;;;;;;;-0.25;91.13;100692.66;5137696;27;20240;-55
2021/01/27 08:12:10;;;;;;;55.47;26.80;;;;;;;-0.24;91.22;100691.88;5136924;27;20297;-58
2021/01/27 08:14:57;;;;;;;46.10;20.30;;;;;;;-0.25;90.76;100682.50;5137311;27;20198;-55
2021/01/27 08:18:04;;;;;;;57.67;26.58;;;;;;;-0.15;90.66;100687.56;5135978;27;20317;-56
2021/01/27 08:20:33;;;;;;;59.65;28.13;;;;;;;-0.22;90.40;100675.13;5054557;28;20220;-58
2021/01/27 08:23:02;;;;;;;58.63;27.80;;;;;;;-0.21;90.31;100668.44;5123710;27;20281;-58
2021/01/27 08:25:52;;;;;;;53.55;25.13;;;;;;;-0.22;90.34;100679.31;5136606;27;20202;-59
2021/01/27 08:28:41;;;;;;;47.65;21.05;;;;;;;-0.25;89.73;100669.81;5135640;27;20261;-59
2021/01/27 08:31:32;;;;;;;53.70;22.45;;;;;;;-0.16;89.55;100668.03;5137236;27;20607;-58
2021/01/27 08:33:59;;;;;;;54.83;23.13;;;;;;;-0.22;89.39;100672.59;5134839;27;20238;-58
2021/01/27 08:37:08;;;;;;;55.13;25.20;;;;;;;-0.04;89.01;100662.22;5137020;27;20241;-56
2021/01/27 08:39:36;;;;;;;53.65;26.42;;;;;;;-0.02;88.73;100673.38;5136757;27;20559;-57
2021/01/27 08:42:18;;;;;;;29.52;14.13;;;;;;;0.00;87.96;100664.25;5135855;27;20202;-52
2021/01/27 08:44:45;;;;;;;49.10;24.70;;;;;;;-0.01;88.10;100670.06;5137037;27;20250;-53
2021/01/27 08:47:19;;;;;;;55.40;25.88;;;;;;;0.13;87.66;100668.69;5135514;27;20229;-55
2021/01/27 08:49:49;;;;;;;42.17;20.45;;;;;;;0.13;87.00;100667.03;5137074;27;20198;-58
2021/01/27 08:52:32;;;;;;;49.92;24.55;;;;;;;0.19;86.64;100675.91;5135295;27;20234;-53
2021/01/27 08:55:00;;;;;;;51.15;22.63;;;;;;;0.25;86.52;100668.78;5136736;27;20198;-56
2021/01/27 08:57:29;;;;;;;43.55;21.17;;;;;;;0.25;86.10;100671.31;5135689;28;20218;-53
2021/01/27 08:59:58;;;;;;;38.42;17.13;;;;;;;0.28;86.28;100671.59;5136727;28;20214;-59
2021/01/27 09:02:44;;;;;;;49.35;24.85;;;;;;;0.43;85.56;100671.94;5135286;27;20250;-59
2021/01/27 09:05:19;;;;;;;54.05;23.70;;;;;;;0.48;85.38;100677.41;5136897;28;20296;-55
2021/01/27 09:07:50;;;;;;;33.97;15.80;;;;;;;0.62;84.54;100689.53;5136090;27;20317;-59
2021/01/27 09:10:19;;;;;;;24.45;11.65;;;;;;;0.60;83.99;100678.38;5136819;28;20198;-57
2021/01/27 09:12:48;;;;;;;44.72;22.15;;;;;;;0.61;83.71;100662.38;5135822;27;20233;-58
2021/01/27 09:15:25;;;;;;;35.95;16.88;;;;;;;0.66;83.48;100650.94;5136520;28;20252;-55
2021/01/27 09:17:51;;;;;;;38.13;20.90;;;;;;;0.59;83.70;100652.88;5135183;27;20250;-57
2021/01/27 09:20:26;;;;;;;33.58;15.80;;;;;;;0.70;83.21;100653.72;5136725;28;20251;-54
2021/01/27 09:22:58;;;;;;;18.27;8.98;;;;;;;0.59;82.71;100674.09;5135711;27;20237;-54
2021/01/27 09:25:25;;;;;;;35.72;18.50;;;;;;;0.63;82.34;100665.94;5136405;28;20203;-55
2021/01/27 09:28:04;;;;;;;33.22;14.52;;;;;;;0.66;81.60;100670.38;5135472;27;20243;-57
2021/01/27 09:30:31;;;;;;;36.30;18.65;;;;;;;0.76;81.41;100677.97;5136748;28;20226;-57
2021/01/27 09:33:11;;;;;;;30.70;17.08;;;;;;;0.76;80.78;100682.16;5135022;27;20315;-56
2021/01/27 09:35:40;;;;;;;27.27;15.10;;;;;;;0.82;80.21;100687.72;5136303;28;20248;-57
2021/01/27 09:38:09;;;;;;;28.70;16.05;;;;;;;0.90;80.68;100680.72;5135175;27;20254;-56
2021/01/27 09:40:39;;;;;;;30.85;16.02;;;;;;;0.92;79.81;100685.16;5136827;28;20207;-56
2021/01/27 09:43:09;;;;;;;26.25;13.15;;;;;;;1.01;79.84;100689.19;5135624;27;20239;-59
2021/01/27 09:45:37;;;;;;;19.67;8.40;;;;;;;0.87;79.43;100693.19;5136240;28;20207;-59
2021/01/27 09:48:05;;;;;;;23.45;13.55;;;;;;;0.97;79.32;100697.34;5135029;27;20580;-59
2021/01/27 09:50:32;;;;;;;16.67;6.40;;;;;;;1.01;79.02;100700.25;5136318;28;20248;-58
2021/01/27 09:53:01;;;;;;;27.70;13.95;;;;;;;1.05;78.75;100703.91;5134826;27;20230;-55
2021/01/27 09:55:28;;;;;;;21.23;9.52;;;;;;;1.03;78.13;100698.69;5136353;28;20199;-58
2021/01/27 09:57:56;;;;;;;20.80;8.90;;;;;;;1.17;78.94;100706.53;5135397;27;20226;-55
2021/01/27 10:00:30;;;;;;;18.15;7.80;;;;;;;1.06;78.30;100703.16;5136214;28;20213;-56
2021/01/27 10:03:11;;;;;;;19.23;10.98;;;;;;;1.06;78.33;100703.16;5134996;27;20234;-60
2021/01/27 10:05:41;;;;;;;19.30;9.80;;;;;;;1.02;77.60;100701.16;5136755;27;20194;-57
2021/01/27 10:08:18;;;;;;;22.65;11.30;;;;;;;1.08;77.98;100696.56;5138670;27;20230;-58
2021/01/27 10:11:04;;;;;;;22.13;11.60;;;;;;;1.18;78.21;100693.06;5140200;27;20205;-59
2021/01/27 10:13:33;;;;;;;26.40;13.43;;;;;;;1.32;77.74;100691.59;5137066;27;20231;-59
2021/01/27 10:16:08;;;;;;;16.27;7.68;;;;;;;1.20;77.14;100684.81;5137198;27;20245;-58
2021/01/27 10:18:37;;;;;;;22.20;11.55;;;;;;;1.17;77.08;100683.66;5137876;27;20230;-60
2021/01/27 10:21:06;;;;;;;17.65;10.10;;;;;;;1.15;76.97;100686.09;5139536;27;20202;-56
2021/01/27 10:23:36;;;;;;;21.40;11.68;;;;;;;1.17;77.52;100679.47;5137414;27;20238;-59
2021/01/27 10:26:34;;;;;;;25.77;13.00;;;;;;;1.26;78.45;100678.41;5139222;27;20219;-58
2021/01/27 10:29:20;;;;;;;29.73;13.20;;;;;;;1.24;78.13;100679.94;5137465;27;20533;-57
2021/01/27 10:31:49;;;;;;;11.93;5.00;;;;;;;1.29;77.77;100671.03;5139266;27;20191;-59
2021/01/27 10:34:34;;;;;;;41.13;16.80;;;;;;;1.35;78.33;100667.28;5137263;27;20249;-55
2021/01/27 10:37:01;;;;;;;41.15;14.60;;;;;;;1.44;77.56;100672.19;5137021;27;20313;-58
2021/01/27 10:39:29;;;;;;;17.27;8.60;;;;;;;1.39;76.96;100675.16;5139144;27;20409;-56
2021/01/27 10:42:22;;;;;;;20.27;9.40;;;;;;;1.54;76.85;100667.84;5138375;27;20199;-54
2021/01/27 10:45:32;;;;;;;24.77;8.68;;;;;;;1.53;76.90;100655.91;5138855;27;20285;-55
2021/01/27 10:48:09;;;;;;;19.80;9.40;;;;;;;1.51;76.46;100667.59;5137863;27;20244;-56
2021/01/27 10:50:38;;;;;;;14.25;6.85;;;;;;;1.67;76.63;100662.00;5138819;27;20238;-56
2021/01/27 10:53:10;;;;;;;13.00;7.07;;;;;;;1.58;76.21;100664.75;5138341;27;20230;-52
2021/01/27 10:55:37;;;;;;;15.55;5.82;;;;;;;1.47;76.78;100666.47;5138819;27;20198;-56
2021/01/27 10:58:06;;;;;;;25.25;10.20;;;;;;;1.62;76.83;100664.22;5138014;27;20635;-58
2021/01/27 11:00:34;;;;;;;28.33;12.10;;;;;;;1.78;76.82;100668.81;5138866;27;20208;-56
2021/01/27 11:03:01;;;;;;;20.05;9.10;;;;;;;1.78;76.25;100661.19;5137010;27;20532;-57
2021/01/27 11:05:28;;;;;;;17.47;7.73;;;;;;;1.67;75.53;100655.28;5138741;27;20207;-57
2021/01/27 11:07:55;;;;;;;13.38;7.63;;;;;;;1.74;75.94;100654.97;5137603;27;20573;-59
2021/01/27 11:10:22;;;;;;;19.48;8.68;;;;;;;1.88;75.86;100645.84;5139011;27;20571;-56
2021/01/27 11:12:48;;;;;;;20.60;9.98;;;;;;;1.92;75.72;100641.88;5137693;27;20230;-57
2021/01/27 11:15:15;;;;;;;13.40;5.23;;;;;;;1.85;75.03;100645.59;5138328;27;20518;-60
2021/01/27 11:17:43;;;;;;;9.52;4.68;;;;;;;1.64;75.04;100642.31;5135635;27;20577;-56
2021/01/27 11:20:11;;;;;;;14.87;7.17;;;;;;;1.66;75.55;100632.25;5138486;27;20633;-56
2021/01/27 11:22:38;;;;;;;18.90;9.43;;;;;;;1.77;75.30;100620.34;5137126;27;20538;-58
2021/01/27 11:25:05;;;;;;;16.20;8.80;;;;;;;1.74;75.25;100616.81;5138012;27;20477;-58
2021/01/27 11:27:32;;;;;;;14.63;7.83;;;;;;;1.85;76.09;100614.19;5137324;27;20568;-56
2021/01/27 11:29:59;;;;;;;19.93;10.10;;;;;;;1.78;75.92;100610.28;5138032;27;20516;-58
2021/01/27 11:32:26;;;;;;;18.27;7.65;;;;;;;1.75;75.57;100610.94;5136490;27;20443;-58
2021/01/27 11:34:53;;;;;;;16.43;7.70;;;;;;;1.74;75.82;100608.28;5138173;27;20226;-59
2021/01/27 11:37:20;;;;;;;15.93;7.65;;;;;;;1.78;75.65;100609.44;5136299;27;20521;-56
2021/01/27 11:39:47;;;;;;;16.53;7.27;;;;;;;1.62;75.69;100600.63;5138071;27;20237;-56